Airfield :







YOU CAN JOIN US ON...

 
LOGIN :

Register | Disclaimer

   EN    FR    IT 

 









Legend :    VFR   Marginal VFR   IFR   Intensive IFR   Very Intensive IFR
Visi :
Ceiling :
>= 8 km
>= 3000ft
5 to 8 km
1000 to 3000 ft
1500m to 5 km
500 to 1000 ft
800 to 1500m
200 to 500 ft
< 800m
< 200 ft
Symbols :   Thunderstorms  Fog  Heavy snow  Heavy precipitations  Wind > 20 kt






- Airport Elevation : 1808 ft
- IATA code : YWK


CYWK - Wabush

CURRENT METAR :
  • 160911Z AUTO 27021G30KT 1SM -SN OVC024 M15/M18 A2888 RMK SLP820

EXPIRED METARs :
  • 160900Z AUTO 28022G31KT 1SM -SN BLSN OVC026 M15/M18 A2888 RMK SLP818
  • 160800Z AUTO 28026G38KT 3/4SM -SN BLSN OVC030 M15/M19 A2884 RMK SLP807
  • 160737Z AUTO 28023G38KT 3/4SM -SN BLSN OVC026 M15/M19 A2883 RMK SLP803
  • 160700Z AUTO 28022G38KT 3/4SM -SN BLSN VV018 M15/M19 A2882 RMK SLP800

TAF TAF CYWK
Valid from the 16 at 08:00 until the 16 at 20:00 UTC


160738Z 1608/1620 28025G35KT 3/4SM -SN BLSN VV008
TEMPO 1608/1620 3SM -SN OVC030 RMK FCST BASED ON AUTO OBS. NXT FCST BY 161400Z



MET'MAP, your aeronautical weather chart ! - Copyright ORBIFLY December 2007 - Disclaimer

ORBIFLY MET'MAP TEAM :

Programming & Development : Alexandra Zaïnal
Concept & original design : Baudouin d'Aumeries
Assistance for programming : Marc-Olivier Méhu
Technical & hardware support : Manuel Goepfert

Contact : metmap@orbifly.com




SOURCES & CREDITS :

   NOAA